sensor_id;sensor_type;location;lat;lon;timestamp;P1;P2;P0
68341;PMS7003;55668;52.310;21.066;2023-09-30T01:34:23;25;25;
68341;PMS7003;55668;52.310;21.066;2023-09-30T06:57:51;21;20;
68341;PMS7003;55668;52.310;21.066;2023-09-30T07:14:12;24;24;
68341;PMS7003;55668;52.310;21.066;2023-09-30T07:25:21;25;23;
68341;PMS7003;55668;52.310;21.066;2023-09-30T08:30:37;23;23;
68341;PMS7003;55668;52.310;21.066;2023-09-30T08:46:58;20;19;
68341;PMS7003;55668;52.310;21.066;2023-09-30T11:04:06;16;16;
68341;PMS7003;55668;52.310;21.066;2023-09-30T12:48:00;3;3;
68341;PMS7003;55668;52.310;21.066;2023-09-30T13:03:46;4;4;
68341;PMS7003;55668;52.310;21.066;2023-09-30T13:34:04;5;5;
68341;PMS7003;55668;52.310;21.066;2023-09-30T13:49:16;5;5;
68341;PMS7003;55668;52.310;21.066;2023-09-30T14:04:32;3;3;
68341;PMS7003;55668;52.310;21.066;2023-09-30T14:19:31;3;3;
68341;PMS7003;55668;52.310;21.066;2023-09-30T14:35:13;2;2;
68341;PMS7003;55668;52.310;21.066;2023-09-30T14:54:29;3;3;
68341;PMS7003;55668;52.310;21.066;2023-09-30T15:10:55;2;2;
68341;PMS7003;55668;52.310;21.066;2023-09-30T15:23:10;3;2;
68341;PMS7003;55668;52.310;21.066;2023-09-30T15:41:24;1;1;
68341;PMS7003;55668;52.310;21.066;2023-09-30T15:53:25;4;2;
68341;PMS7003;55668;52.310;21.066;2023-09-30T16:07:48;3;3;
68341;PMS7003;55668;52.310;21.066;2023-09-30T16:22:57;2;2;
68341;PMS7003;55668;52.310;21.066;2023-09-30T16:37:58;4;4;
68341;PMS7003;55668;52.310;21.066;2023-09-30T16:53:03;4;4;
68341;PMS7003;55668;52.310;21.066;2023-09-30T17:08:02;4;4;
68341;PMS7003;55668;52.310;21.066;2023-09-30T17:27:25;6;6;
68341;PMS7003;55668;52.310;21.066;2023-09-30T17:39:18;7;7;
68341;PMS7003;55668;52.310;21.066;2023-09-30T17:58:50;7;7;
68341;PMS7003;55668;52.310;21.066;2023-09-30T18:10:12;9;9;
68341;PMS7003;55668;52.310;21.066;2023-09-30T18:43:07;6;6;
68341;PMS7003;55668;52.310;21.066;2023-09-30T18:56:46;4;4;
68341;PMS7003;55668;52.310;21.066;2023-09-30T19:28:37;6;6;
68341;PMS7003;55668;52.310;21.066;2023-09-30T19:58:00;7;7;
68341;PMS7003;55668;52.310;21.066;2023-09-30T20:30:49;8;7;
68341;PMS7003;55668;52.310;21.066;2023-09-30T20:48:24;5;5;
68341;PMS7003;55668;52.310;21.066;2023-09-30T21:46:42;6;6;
68341;PMS7003;55668;52.310;21.066;2023-09-30T22:00:22;7;7;
68341;PMS7003;55668;52.310;21.066;2023-09-30T22:20:26;6;6;
68341;PMS7003;55668;52.310;21.066;2023-09-30T22:50:16;7;7;
68341;PMS7003;55668;52.310;21.066;2023-09-30T23:04:30;6;6;
68341;PMS7003;55668;52.310;21.066;2023-09-30T23:32:09;8;7;
68341;PMS7003;55668;52.310;21.066;2023-09-30T23:47:17;6;6;
